Rotselaar, Belgium
Current Conditions -  °F | °C
As of 11:20 AM on Tuesday 21 Oct 2014 (Local Time) from EBBR Reporting Station
Light Rain Light Rain  
Wind Chill: 54°   Ceiling: 1700
Heat Index: 54°   Visibility: 6mi
Dew Point: 50°   Wind: 21mph
Humidity: 88%   Direction: 210°SSW
Pressure: 29.65"   Gusts: NA
Location:  50.95°N, 4.72°E
Report Text: EBBR 210920Z 21018KT 9999 -RA FEW012 BKN017 12/10 Q1004 TEMPO 21018G30KT
Loading
Personal Weather Stations






























Interactive Weather Map
Tropical Storm Tracking
New forecast layout! Learn more

10-Day Weather Forecast

Advertisements
Track Severe Weather on mobile